Time,TemperatureF,DewpointF,PressureIn,WindDirection,WindDirectionDegrees,WindSpeedMPH,WindSpeedGustMPH,Humidity,HourlyPrecipIn,Conditions,Clouds,dailyrainin,SoftwareType,DateUTC
2013-11-22 00:14:00,68.2,67.9,30.14,ESE,112,4.7,-999.0,99,-99.99,,,0.00,Acu-Link.com,2013-11-22 06:14:00,
2013-11-22 00:30:00,68.0,67.7,30.14,East,90,4.7,-999.0,99,-99.99,,,0.00,Acu-Link.com,2013-11-22 06:30:00,
2013-11-22 00:45:00,67.8,67.5,30.14,ESE,112,6.3,-999.0,99,-99.99,,,0.00,Acu-Link.com,2013-11-22 06:45:00,
2013-11-22 01:00:00,67.6,67.3,30.13,ENE,67,5.8,-999.0,99,-99.99,,,0.00,Acu-Link.com,2013-11-22 07:00:00,
2013-11-22 01:15:00,67.3,67.0,30.13,East,90,5.8,-999.0,99,-99.99,,,0.00,Acu-Link.com,2013-11-22 07:15:00,
2013-11-22 01:30:00,67.3,67.0,30.13,ESE,112,7.8,-999.0,99,-99.99,,,0.00,Acu-Link.com,2013-11-22 07:30:00,
2013-11-22 01:45:00,67.1,66.8,30.13,ESE,112,4.7,-999.0,99,-99.99,,,0.00,Acu-Link.com,2013-11-22 07:45:00,
2013-11-22 02:00:00,67.1,66.8,30.13,East,90,6.7,-999.0,99,-99.99,,,0.00,Acu-Link.com,2013-11-22 08:00:00,
2013-11-22 02:16:00,67.1,66.8,30.13,East,90,6.3,-999.0,99,-99.99,,,0.00,Acu-Link.com,2013-11-22 08:16:00,
2013-11-22 02:31:00,66.9,66.6,30.12,ESE,112,4.7,-999.0,99,-99.99,,,0.00,Acu-Link.com,2013-11-22 08:31:00,
2013-11-22 02:46:00,66.9,66.6,30.12,ESE,112,5.1,-999.0,99,-99.99,,,0.00,Acu-Link.com,2013-11-22 08:46:00,
2013-11-22 03:01:00,66.9,66.6,30.12,East,90,5.8,-999.0,99,-99.99,,,0.00,Acu-Link.com,2013-11-22 09:01:00,
2013-11-22 03:17:00,66.9,66.6,30.12,ESE,112,4.3,-999.0,99,-99.99,,,0.00,Acu-Link.com,2013-11-22 09:17:00,
2013-11-22 03:32:00,66.9,66.6,30.12,ESE,112,6.3,-999.0,99,-99.99,,,0.00,Acu-Link.com,2013-11-22 09:32:00,
2013-11-22 03:47:00,66.7,66.4,30.11,East,90,4.3,-999.0,99,-99.99,,,0.00,Acu-Link.com,2013-11-22 09:47:00,
2013-11-22 04:02:00,66.7,66.4,30.12,ESE,112,5.1,-999.0,99,-99.99,,,0.00,Acu-Link.com,2013-11-22 10:02:00,
2013-11-22 04:17:00,66.6,66.3,30.12,East,90,3.1,-999.0,99,-99.99,,,0.00,Acu-Link.com,2013-11-22 10:17:00,
2013-11-22 04:33:00,66.6,66.3,30.12,East,90,4.7,-999.0,99,-99.99,,,0.00,Acu-Link.com,2013-11-22 10:33:00,
2013-11-22 04:48:00,66.6,66.3,30.12,ESE,112,2.2,-999.0,99,-99.99,,,0.00,Acu-Link.com,2013-11-22 10:48:00,
2013-11-22 05:03:00,66.6,66.3,30.14,ESE,112,2.7,-999.0,99,-99.99,,,0.00,Acu-Link.com,2013-11-22 11:03:00,
2013-11-22 05:18:00,66.6,66.3,30.15,East,90,2.7,-999.0,99,-99.99,,,0.00,Acu-Link.com,2013-11-22 11:18:00,
2013-11-22 05:33:00,66.6,66.3,30.16,ENE,67,2.7,-999.0,99,-99.99,,,0.00,Acu-Link.com,2013-11-22 11:33:00,
2013-11-22 05:48:00,66.6,66.3,30.16,ENE,67,0.0,-999.0,99,-99.99,,,0.00,Acu-Link.com,2013-11-22 11:48:00,
2013-11-22 06:04:00,66.6,66.3,30.17,East,90,0.0,-999.0,99,-99.99,,,0.00,Acu-Link.com,2013-11-22 12:04:00,
2013-11-22 06:19:00,66.6,66.3,30.17,East,90,2.7,-999.0,99,-99.99,,,0.00,Acu-Link.com,2013-11-22 12:19:00,
2013-11-22 06:34:00,66.6,66.3,30.18,East,90,3.1,-999.0,99,-99.99,,,0.00,Acu-Link.com,2013-11-22 12:34:00,
2013-11-22 06:49:00,66.6,66.3,30.18,ENE,67,4.7,-999.0,99,-99.99,,,0.00,Acu-Link.com,2013-11-22 12:49:00,
2013-11-22 07:19:00,66.6,66.3,30.18,East,90,4.3,-999.0,99,-99.99,,,0.00,Acu-Link.com,2013-11-22 13:19:00,
2013-11-22 07:34:00,66.9,66.6,30.18,ESE,112,4.3,-999.0,99,-99.99,,,0.00,Acu-Link.com,2013-11-22 13:34:00,
2013-11-22 07:50:00,67.3,67.0,30.18,ESE,112,5.1,-999.0,99,-99.99,,,0.00,Acu-Link.com,2013-11-22 13:50:00,
2013-11-22 08:05:00,67.8,67.5,30.18,East,90,4.7,-999.0,99,-99.99,,,0.00,Acu-Link.com,2013-11-22 14:05:00,
2013-11-22 08:20:00,68.2,67.9,30.18,East,90,6.3,-999.0,99,-99.99,,,0.00,Acu-Link.com,2013-11-22 14:20:00,
2013-11-22 08:35:00,68.2,67.9,30.18,ESE,112,5.8,-999.0,99,-99.99,,,0.00,Acu-Link.com,2013-11-22 14:35:00,
2013-11-22 08:50:00,68.5,68.2,30.19,ESE,112,4.7,-999.0,99,-99.99,,,0.00,Acu-Link.com,2013-11-22 14:50:00,
2013-11-22 09:05:00,69.1,68.8,30.20,East,90,3.1,-999.0,99,-99.99,,,0.00,Acu-Link.com,2013-11-22 15:05:00,
2013-11-22 09:21:00,69.3,69.0,30.21,East,90,4.3,-999.0,99,-99.99,,,0.00,Acu-Link.com,2013-11-22 15:21:00,
2013-11-22 09:36:00,69.3,69.0,30.22,ENE,67,1.6,-999.0,99,-99.99,,,0.00,Acu-Link.com,2013-11-22 15:36:00,
2013-11-22 09:51:00,70.0,69.7,30.22,ESE,112,0.0,-999.0,99,-99.99,,,0.00,Acu-Link.com,2013-11-22 15:51:00,
2013-11-22 10:06:00,70.2,69.6,30.22,NE,45,1.6,-999.0,98,-99.99,,,0.00,Acu-Link.com,2013-11-22 16:06:00,
2013-11-22 10:21:00,70.0,69.4,30.23,NE,45,2.7,-999.0,98,-99.99,,,0.00,Acu-Link.com,2013-11-22 16:21:00,
2013-11-22 10:36:00,69.3,68.7,30.23,North,0,2.7,-999.0,98,-99.99,,,0.00,Acu-Link.com,2013-11-22 16:36:00,
2013-11-22 10:52:00,67.6,67.1,30.23,NNE,22,6.7,-999.0,98,-99.99,,,0.01,Acu-Link.com,2013-11-22 16:52:00,
2013-11-22 11:07:00,67.3,66.7,30.23,NE,45,1.1,-999.0,98,-99.99,,,0.08,Acu-Link.com,2013-11-22 17:07:00,
2013-11-22 11:22:00,67.5,66.9,30.23,SSW,202,0.0,-999.0,98,-99.99,,,0.16,Acu-Link.com,2013-11-22 17:22:00,
2013-11-22 11:37:00,67.8,66.9,30.23,NE,45,1.6,-999.0,97,-99.99,,,0.16,Acu-Link.com,2013-11-22 17:37:00,
2013-11-22 11:52:00,67.1,66.2,30.22,East,90,5.1,-999.0,97,-99.99,,,0.16,Acu-Link.com,2013-11-22 17:52:00,
2013-11-22 12:07:00,67.5,66.6,30.21,ENE,67,6.3,-999.0,97,-99.99,,,0.16,Acu-Link.com,2013-11-22 18:07:00,
2013-11-22 12:22:00,67.6,66.5,30.20,NE,45,4.3,-999.0,96,-99.99,,,0.16,Acu-Link.com,2013-11-22 18:22:00,
2013-11-22 12:37:00,68.5,67.4,30.20,NNE,22,1.6,-999.0,96,-99.99,,,0.16,Acu-Link.com,2013-11-22 18:37:00,
2013-11-22 12:53:00,68.7,67.2,30.20,ENE,67,1.1,-999.0,95,-99.99,,,0.16,Acu-Link.com,2013-11-22 18:53:00,
2013-11-22 13:23:00,69.3,67.5,30.19,SSE,157,0.0,-999.0,94,-99.99,,,0.16,Acu-Link.com,2013-11-22 19:23:00,
2013-11-22 13:38:00,69.4,67.6,30.17,ENE,67,4.3,-999.0,94,-99.99,,,0.16,Acu-Link.com,2013-11-22 19:38:00,
2013-11-22 13:53:00,69.8,67.0,30.16,ESE,112,5.1,-999.0,91,-99.99,,,0.16,Acu-Link.com,2013-11-22 19:53:00,
2013-11-22 14:08:00,70.9,68.1,30.16,NE,45,1.6,-999.0,91,-99.99,,,0.16,Acu-Link.com,2013-11-22 20:08:00,
2013-11-22 14:23:00,70.5,67.8,30.16,NE,45,2.7,-999.0,91,-99.99,,,0.16,Acu-Link.com,2013-11-22 20:23:00,
2013-11-22 14:39:00,70.9,67.8,30.15,ESE,112,3.8,-999.0,90,-99.99,,,0.16,Acu-Link.com,2013-11-22 20:39:00,
2013-11-22 14:54:00,71.6,68.2,30.15,NE,45,2.2,-999.0,89,-99.99,,,0.16,Acu-Link.com,2013-11-22 20:54:00,
2013-11-22 15:09:00,71.6,67.9,30.16,East,90,3.1,-999.0,88,-99.99,,,0.16,Acu-Link.com,2013-11-22 21:09:00,
2013-11-22 15:24:00,70.7,67.0,30.15,NE,45,7.4,-999.0,88,-99.99,,,0.16,Acu-Link.com,2013-11-22 21:24:00,
2013-11-22 15:39:00,70.3,67.3,30.14,East,90,8.3,-999.0,90,-99.99,,,0.16,Acu-Link.com,2013-11-22 21:39:00,
2013-11-22 15:54:00,70.3,67.3,30.15,ENE,67,3.8,-999.0,90,-99.99,,,0.16,Acu-Link.com,2013-11-22 21:54:00,
2013-11-22 16:09:00,70.5,67.4,30.15,East,90,3.1,-999.0,90,-99.99,,,0.16,Acu-Link.com,2013-11-22 22:09:00,
2013-11-22 16:24:00,69.6,66.9,30.14,ESE,112,4.7,-999.0,91,-99.99,,,0.16,Acu-Link.com,2013-11-22 22:24:00,
2013-11-22 16:40:00,69.6,67.2,30.15,South,180,0.0,-999.0,92,-99.99,,,0.16,Acu-Link.com,2013-11-22 22:40:00,
2013-11-22 16:55:00,68.9,66.8,30.16,West,270,1.6,-999.0,93,-99.99,,,0.16,Acu-Link.com,2013-11-22 22:55:00,
2013-11-22 17:10:00,68.5,67.0,30.17,NNW,337,0.0,-999.0,95,-99.99,,,0.16,Acu-Link.com,2013-11-22 23:10:00,
2013-11-22 17:25:00,67.8,66.3,30.16,NNE,22,2.2,-999.0,95,-99.99,,,0.16,Acu-Link.com,2013-11-22 23:25:00,
2013-11-22 17:40:00,67.3,66.1,30.16,NE,45,2.7,-999.0,96,-99.99,,,0.16,Acu-Link.com,2013-11-22 23:40:00,
2013-11-22 17:55:00,66.7,65.9,30.17,NE,45,1.6,-999.0,97,-99.99,,,0.16,Acu-Link.com,2013-11-22 23:55:00,
2013-11-22 18:10:00,66.6,66.0,30.17,NNE,22,1.6,-999.0,98,-99.99,,,0.16,Acu-Link.com,2013-11-23 00:10:00,
2013-11-22 18:25:00,66.6,66.0,30.17,NNE,22,1.6,-999.0,98,-99.99,,,0.16,Acu-Link.com,2013-11-23 00:25:00,
2013-11-22 18:41:00,66.6,66.0,30.17,NNW,337,1.6,-999.0,98,-99.99,,,0.16,Acu-Link.com,2013-11-23 00:41:00,
2013-11-22 18:56:00,66.6,66.0,30.17,NNE,22,2.2,-999.0,98,-99.99,,,0.16,Acu-Link.com,2013-11-23 00:56:00,
2013-11-22 19:11:00,66.6,66.0,30.18,NE,45,1.6,-999.0,98,-99.99,,,0.16,Acu-Link.com,2013-11-23 01:11:00,
2013-11-22 19:26:00,66.6,66.0,30.18,NE,45,2.2,-999.0,98,-99.99,,,0.16,Acu-Link.com,2013-11-23 01:26:00,
2013-11-22 19:41:00,66.4,65.8,30.19,North,0,1.6,-999.0,98,-99.99,,,0.16,Acu-Link.com,2013-11-23 01:41:00,
2013-11-22 19:56:00,66.4,65.8,30.19,NE,45,2.2,-999.0,98,-99.99,,,0.16,Acu-Link.com,2013-11-23 01:56:00,
2013-11-22 20:12:00,66.4,66.1,30.19,NNW,337,1.6,-999.0,99,-99.99,,,0.16,Acu-Link.com,2013-11-23 02:12:00,
2013-11-22 20:27:00,66.2,65.9,30.20,NNE,22,2.2,-999.0,99,-99.99,,,0.16,Acu-Link.com,2013-11-23 02:27:00,
2013-11-22 20:42:00,66.0,65.7,30.19,NNW,337,1.6,-999.0,99,-99.99,,,0.16,Acu-Link.com,2013-11-23 02:42:00,
2013-11-22 20:57:00,66.0,65.7,30.20,North,0,2.7,-999.0,99,-99.99,,,0.16,Acu-Link.com,2013-11-23 02:57:00,
2013-11-22 21:12:00,66.0,65.7,30.20,North,0,2.2,-999.0,99,-99.99,,,0.16,Acu-Link.com,2013-11-23 03:12:00,
2013-11-22 21:27:00,65.8,65.6,30.20,NNE,22,2.2,-999.0,99,-99.99,,,0.16,Acu-Link.com,2013-11-23 03:27:00,
2013-11-22 21:42:00,65.8,65.6,30.21,North,0,4.3,-999.0,99,-99.99,,,0.16,Acu-Link.com,2013-11-23 03:42:00,
2013-11-22 21:58:00,65.8,65.6,30.21,NNE,22,2.2,-999.0,99,-99.99,,,0.16,Acu-Link.com,2013-11-23 03:58:00,
2013-11-22 22:13:00,66.0,65.7,30.20,ENE,67,1.6,-999.0,99,-99.99,,,0.16,Acu-Link.com,2013-11-23 04:13:00,
2013-11-22 22:28:00,66.0,65.7,30.20,NE,45,2.7,-999.0,99,-99.99,,,0.16,Acu-Link.com,2013-11-23 04:28:00,
2013-11-22 22:43:00,66.0,65.7,30.20,NE,45,2.7,-999.0,99,-99.99,,,0.16,Acu-Link.com,2013-11-23 04:43:00,
2013-11-22 22:58:00,66.0,65.7,30.20,NE,45,2.7,-999.0,99,-99.99,,,0.16,Acu-Link.com,2013-11-23 04:58:00,
2013-11-22 23:13:00,66.0,65.7,30.20,North,0,2.7,-999.0,99,-99.99,,,0.16,Acu-Link.com,2013-11-23 05:13:00,
2013-11-22 23:28:00,66.0,65.4,30.19,NE,45,2.2,-999.0,98,-99.99,,,0.16,Acu-Link.com,2013-11-23 05:28:00,
2013-11-22 23:43:00,66.0,65.4,30.19,ENE,67,2.7,-999.0,98,-99.99,,,0.16,Acu-Link.com,2013-11-23 05:43:00,
2013-11-22 23:59:00,64.6,64.0,30.19,NNE,22,1.6,-999.0,98,-99.99,,,0.16,Acu-Link.com,2013-11-23 05:59:00,